Time;durP1;ratioP1;P1;durP2;ratioP2;P2;SDS_P1;SDS_P2;PMS_P1;PMS_P2;Temp;Humidity;BMP_temperature;BMP_pressure;BME280_temperature;BME280_humidity;BME280_pressure;Samples;Min_cycle;Max_cycle;Signal;HPM_P1;HPM_P2
2023/01/17 00:02:03;;;;;;;41.20;21.20;;;;;;;1.85;85.95;97875.31;110981;1206;138446;-65
2023/01/17 00:10:06;;;;;;;41.00;19.90;;;;;;;1.94;85.93;97864.10;111025;1208;139608;-65
2023/01/17 00:12:31;;;;;;;;;;;;;;;1.96;86.03;97863.45;111208;1206;97686;-65
2023/01/17 00:14:58;;;;;;;42.10;18.60;;;;;;;2.00;86.05;97859.05;110960;1221;125095;-65
2023/01/17 00:17:25;;;;;;;42.30;20.80;;;;;;;2.03;86.25;97864.69;111039;1209;97572;-66
2023/01/17 01:34:57;;;;;;;46.60;21.90;;;;;;;2.38;87.40;97773.62;111114;1209;111780;-65
2023/01/17 01:37:22;;;;;;;40.90;20.70;;;;;;;2.38;87.34;97774.48;111194;1206;97690;-65
2023/01/17 01:39:47;;;;;;;41.30;18.80;;;;;;;2.37;87.19;97773.13;111074;1208;138762;-65
2023/01/17 01:42:14;;;;;;;38.40;18.30;;;;;;;2.36;87.26;97768.28;111145;1206;97621;-66
2023/01/17 01:44:51;;;;;;;37.80;19.30;;;;;;;2.36;87.49;97758.22;111014;1209;138812;-65
2023/01/17 01:47:24;;;;;;;35.90;17.40;;;;;;;2.38;87.48;97754.95;111102;1208;100026;-66
2023/01/17 01:49:50;;;;;;;38.90;18.00;;;;;;;2.38;87.50;97752.46;111104;1206;107966;-65
2023/01/17 01:52:17;;;;;;;38.30;19.00;;;;;;;2.40;87.48;97753.27;111000;1218;138508;-65
2023/01/17 01:54:50;;;;;;;37.40;17.90;;;;;;;2.39;87.69;97752.05;111137;1208;97661;-65
2023/01/17 01:57:21;;;;;;;35.30;17.90;;;;;;;2.41;87.61;97757.44;111052;1209;138371;-67
2023/01/17 01:59:54;;;;;;;37.70;18.90;;;;;;;2.41;87.67;97751.09;111115;1224;98858;-66
2023/01/17 02:02:20;;;;;;;37.00;18.50;;;;;;;2.41;87.68;97750.73;110980;1220;138609;-66
2023/01/17 02:04:46;;;;;;;38.30;18.60;;;;;;;2.41;87.61;97744.70;111081;1208;99302;-67
2023/01/17 02:07:19;;;;;;;40.70;19.20;;;;;;;2.43;87.71;97738.63;111195;1205;97746;-67
2023/01/17 02:09:44;;;;;;;43.60;20.30;;;;;;;2.45;87.93;97733.74;111061;1209;138934;-67
2023/01/17 02:12:11;;;;;;;37.20;18.10;;;;;;;2.45;87.80;97730.56;111047;1208;97584;-66
2023/01/17 02:14:36;;;;;;;36.50;18.00;;;;;;;2.45;87.77;97725.45;111051;1206;140240;-66
2023/01/17 02:17:21;;;;;;;37.90;19.20;;;;;;;2.45;87.79;97730.04;111142;1217;97715;-67
2023/01/17 02:20:25;;;;;;;38.50;18.40;;;;;;;2.43;87.81;97725.04;111077;1206;98846;-66
2023/01/17 02:23:00;;;;;;;38.30;18.60;;;;;;;2.43;87.87;97723.65;110993;1208;107059;-66
2023/01/17 02:26:00;;;;;;;33.70;17.90;;;;;;;2.44;87.83;97718.13;111154;1208;97811;-67
2023/01/17 02:28:57;;;;;;;44.00;19.50;;;;;;;2.45;88.09;97717.55;111048;1209;139764;-66
2023/01/17 02:31:31;;;;;;;38.50;18.60;;;;;;;2.47;88.00;97710.20;111088;1209;112340;-67
2023/01/17 02:34:09;;;;;;;40.10;19.10;;;;;;;2.48;87.98;97701.67;110949;1206;139477;-66
2023/01/17 02:36:45;;;;;;;39.10;19.40;;;;;;;2.49;88.18;97696.33;111080;1206;107247;-66
2023/01/17 02:39:10;;;;;;;47.50;19.00;;;;;;;2.49;87.98;97683.45;111012;1209;139962;-66
2023/01/17 02:41:40;;;;;;;35.40;17.70;;;;;;;2.48;88.17;97680.88;111151;1206;97592;-66
2023/01/17 02:44:08;;;;;;;35.90;18.90;;;;;;;2.45;87.85;97677.52;110949;1209;138692;-66
2023/01/17 02:46:44;;;;;;;35.60;18.50;;;;;;;2.41;87.97;97675.15;111181;1209;99823;-67
2023/01/17 02:49:09;;;;;;;36.60;18.60;;;;;;;2.36;88.04;97672.44;111119;1205;106714;-67
2023/01/17 02:52:20;;;;;;;40.90;19.20;;;;;;;2.31;87.97;97674.66;110943;1211;138506;-66
2023/01/17 02:55:10;;;;;;;40.10;20.30;;;;;;;2.26;88.19;97677.73;111177;1208;97588;-67
2023/01/17 02:57:51;;;;;;;39.60;18.80;;;;;;;2.24;88.20;97683.48;111054;1209;138295;-66
2023/01/17 03:00:25;;;;;;;38.60;19.20;;;;;;;2.22;88.16;97684.29;111193;1209;99258;-67
2023/01/17 03:03:05;;;;;;;41.90;19.80;;;;;;;2.22;88.14;97688.73;111187;1209;139229;-66
2023/01/17 03:05:35;;;;;;;41.80;19.70;;;;;;;2.22;88.17;97681.34;111093;1209;97646;-67
2023/01/17 03:08:02;;;;;;;40.00;19.70;;;;;;;2.22;88.05;97678.70;111143;1205;138286;-63
2023/01/17 03:10:31;;;;;;;41.70;20.50;;;;;;;2.21;88.26;97675.19;111212;1206;101442;-67
2023/01/17 03:12:58;;;;;;;43.30;21.10;;;;;;;2.23;88.48;97674.23;111137;1206;99496;-66
2023/01/17 03:15:24;;;;;;;43.40;20.20;;;;;;;2.24;88.30;97678.40;111037;1208;138308;-67
2023/01/17 03:17:52;;;;;;;41.20;21.10;;;;;;;2.23;88.34;97671.76;111070;1208;97541;-66
2023/01/17 03:20:18;;;;;;;41.60;21.00;;;;;;;2.23;88.38;97675.61;111097;1208;139044;-66
2023/01/17 03:22:43;;;;;;;37.10;20.50;;;;;;;2.23;88.25;97675.61;111151;1206;97712;-66
2023/01/17 03:25:09;;;;;;;43.40;21.10;;;;;;;2.23;88.39;97672.60;111258;1206;97588;-67
2023/01/17 03:27:34;;;;;;;45.60;21.10;;;;;;;2.24;88.48;97673.95;111067;1208;138120;-67
2023/01/17 03:30:00;;;;;;;41.80;19.60;;;;;;;2.24;88.32;97673.78;111200;1208;97471;-67
2023/01/17 03:32:26;;;;;;;44.90;22.20;;;;;;;2.24;88.40;97671.85;111030;1209;138963;-66
2023/01/17 03:34:52;;;;;;;50.60;22.50;;;;;;;2.24;88.41;97666.55;111176;1206;97709;-66
2023/01/17 03:37:17;;;;;;;46.20;21.80;;;;;;;2.26;88.66;97661.71;111245;1208;97604;-66
2023/01/17 03:39:43;;;;;;;41.50;19.80;;;;;;;2.25;88.55;97658.73;111032;1206;138385;-66
2023/01/17 03:42:08;;;;;;;46.00;20.50;;;;;;;2.26;88.65;97658.36;111132;1208;97622;-66
2023/01/17 03:44:33;;;;;;;42.20;20.00;;;;;;;2.26;88.60;97657.31;111082;1208;138985;-66
2023/01/17 03:46:59;;;;;;;44.10;21.40;;;;;;;2.25;88.69;97654.01;111139;1206;97620;-66
2023/01/17 03:49:25;;;;;;;44.30;20.70;;;;;;;2.25;88.47;97655.76;111148;1206;97971;-67
2023/01/17 03:51:50;;;;;;;45.80;22.80;;;;;;;2.25;88.48;97656.65;110944;1208;138122;-66
2023/01/17 03:54:15;;;;;;;41.20;19.50;;;;;;;2.25;88.70;97657.00;111150;1213;97626;-67
2023/01/17 03:56:41;;;;;;;41.70;19.20;;;;;;;2.26;88.77;97664.16;111096;1209;139235;-66
2023/01/17 03:59:06;;;;;;;42.50;20.80;;;;;;;2.26;88.66;97666.64;111021;1206;98874;-64
2023/01/17 04:01:31;;;;;;;38.10;18.80;;;;;;;2.27;88.82;97670.10;111065;1205;97699;-68
2023/01/17 04:03:56;;;;;;;44.10;21.30;;;;;;;2.27;88.81;97670.45;110992;1208;138849;-67
2023/01/17 04:06:22;;;;;;;40.00;18.70;;;;;;;2.28;88.73;97666.70;111147;1209;97701;-67
2023/01/17 04:08:47;;;;;;;42.30;19.30;;;;;;;2.28;88.78;97665.81;110969;1207;139163;-67
2023/01/17 04:11:12;;;;;;;43.60;20.80;;;;;;;2.27;88.72;97659.35;111089;1208;97596;-67
2023/01/17 04:13:38;;;;;;;42.60;20.80;;;;;;;2.28;88.81;97653.28;111225;1206;97917;-67
2023/01/17 04:16:04;;;;;;;44.00;20.10;;;;;;;2.29;88.93;97654.85;111033;1206;139411;-67
2023/01/17 04:18:29;;;;;;;47.40;22.30;;;;;;;2.28;88.82;97655.08;111188;1205;97712;-68
2023/01/17 04:20:54;;;;;;;50.80;21.20;;;;;;;2.28;88.94;97649.43;111066;1208;138329;-68
2023/01/17 04:23:20;;;;;;;39.20;19.60;;;;;;;2.29;88.86;97652.75;111173;1222;97597;-66
2023/01/17 04:25:45;;;;;;;37.00;18.10;;;;;;;2.29;88.92;97649.21;111187;1208;97580;-65
2023/01/17 04:28:10;;;;;;;39.20;17.10;;;;;;;2.27;88.89;97642.77;111085;1206;138346;-67
2023/01/17 04:30:36;;;;;;;38.10;18.20;;;;;;;2.28;88.95;97641.69;111111;1211;98036;-65
2023/01/17 04:33:01;;;;;;;32.50;15.30;;;;;;;2.29;89.19;97639.33;110987;1206;138397;-65
2023/01/17 04:35:29;;;;;;;40.70;18.50;;;;;;;2.27;89.00;97642.80;111124;1209;97710;-66
2023/01/17 04:37:54;;;;;;;43.90;19.10;;;;;;;2.25;88.98;97642.90;111118;1206;97748;-67
2023/01/17 04:40:19;;;;;;;37.90;18.50;;;;;;;2.25;88.97;97643.29;111186;1209;139316;-65
2023/01/17 04:42:46;;;;;;;36.60;17.80;;;;;;;2.24;89.08;97639.41;111110;1206;97670;-65
2023/01/17 04:45:12;;;;;;;36.40;17.40;;;;;;;2.24;89.05;97640.15;111054;1206;138320;-67
2023/01/17 04:47:38;;;;;;;36.20;16.60;;;;;;;2.23;89.02;97639.14;111313;1208;97856;-65
2023/01/17 04:50:04;;;;;;;37.50;17.80;;;;;;;2.22;89.00;97640.42;111016;1206;138661;-67
2023/01/17 04:52:29;;;;;;;30.20;15.10;;;;;;;2.24;89.22;97647.04;111230;1222;97886;-65
2023/01/17 04:54:54;;;;;;;33.50;17.30;;;;;;;2.23;89.07;97649.86;111167;1209;97674;-65
2023/01/17 04:57:19;;;;;;;35.80;17.30;;;;;;;2.24;89.08;97648.62;111051;1208;138950;-66
2023/01/17 04:59:45;;;;;;;32.70;16.20;;;;;;;2.23;89.18;97648.83;111177;1208;97700;-64
2023/01/17 05:02:12;;;;;;;38.60;17.30;;;;;;;2.23;89.12;97648.48;111039;1208;139859;-67
2023/01/17 05:04:37;;;;;;;32.80;15.80;;;;;;;2.23;89.24;97650.45;111175;1205;97727;-65
2023/01/17 05:07:04;;;;;;;40.30;17.60;;;;;;;2.22;89.17;97652.45;111157;1206;96477;-65
2023/01/17 05:09:29;;;;;;;34.30;16.60;;;;;;;2.19;89.12;97650.09;111036;1208;138360;-67
2023/01/17 05:11:54;;;;;;;37.20;17.10;;;;;;;2.19;89.20;97655.04;111166;1209;97660;-66
2023/01/17 05:14:20;;;;;;;41.30;17.60;;;;;;;2.18;89.30;97654.92;111129;1209;140193;-65
2023/01/17 05:16:46;;;;;;;38.80;17.90;;;;;;;2.18;89.23;97657.59;111153;1221;97609;-67
2023/01/17 05:19:12;;;;;;;37.40;16.30;;;;;;;2.19;89.12;97658.79;111133;1208;97697;-68
2023/01/17 05:21:37;;;;;;;34.30;16.00;;;;;;;2.20;89.25;97660.09;111037;1208;139757;-68
2023/01/17 05:24:03;;;;;;;33.90;15.50;;;;;;;2.21;89.19;97659.33;111148;1208;97603;-66
2023/01/17 05:26:28;;;;;;;37.10;17.60;;;;;;;2.22;89.13;97665.28;111170;1208;139107;-67
2023/01/17 05:28:53;;;;;;;33.90;16.00;;;;;;;2.23;88.96;97667.86;111101;1209;97514;-68
2023/01/17 05:31:19;;;;;;;33.80;15.70;;;;;;;2.23;89.04;97668.05;111098;1210;97678;-67
2023/01/17 05:33:44;;;;;;;34.90;15.80;;;;;;;2.23;89.18;97671.19;111150;1208;138747;-65
2023/01/17 05:36:09;;;;;;;30.00;14.70;;;;;;;2.23;88.94;97673.49;111109;1204;99566;-66
2023/01/17 05:38:35;;;;;;;30.30;14.30;;;;;;;2.23;89.07;97671.94;111066;1209;138374;-65
2023/01/17 05:41:01;;;;;;;29.60;14.70;;;;;;;2.22;89.00;97670.56;111117;1210;97803;-66
2023/01/17 05:43:27;;;;;;;28.20;14.00;;;;;;;2.22;89.06;97665.27;111189;1208;97593;-66
2023/01/17 05:45:53;;;;;;;28.40;12.20;;;;;;;2.22;89.13;97664.57;111085;1206;138484;-66
2023/01/17 05:48:19;;;;;;;33.40;14.90;;;;;;;2.22;89.12;97663.52;111158;1206;97732;-65
2023/01/17 05:50:45;;;;;;;31.90;14.10;;;;;;;2.23;89.15;97673.66;111089;1208;138684;-65
2023/01/17 05:53:12;;;;;;;26.70;12.90;;;;;;;2.24;89.28;97673.63;111253;1206;98098;-66
2023/01/17 05:55:39;;;;;;;27.00;13.90;;;;;;;2.25;89.08;97679.17;111141;1208;106949;-65
2023/01/17 05:58:05;;;;;;;26.20;11.70;;;;;;;2.27;89.22;97679.25;111132;1206;138578;-67
2023/01/17 06:00:31;;;;;;;29.20;11.50;;;;;;;2.28;89.15;97683.79;111178;1221;97352;-64
2023/01/17 06:02:58;;;;;;;26.90;13.00;;;;;;;2.30;89.12;97687.02;111097;1206;140138;-68
2023/01/17 06:05:26;;;;;;;26.60;11.40;;;;;;;2.32;89.11;97683.55;111339;1209;107430;-65
2023/01/17 06:07:51;;;;;;;24.00;10.70;;;;;;;2.33;89.08;97685.28;111139;1207;97665;-67
2023/01/17 06:10:19;;;;;;;22.70;11.30;;;;;;;2.34;88.96;97683.45;111005;1209;137954;-68
2023/01/17 06:12:46;;;;;;;25.90;12.00;;;;;;;2.35;89.01;97685.89;111246;1206;97853;-66
2023/01/17 06:15:14;;;;;;;22.60;10.30;;;;;;;2.35;89.01;97688.34;111106;1209;139008;-65
2023/01/17 06:17:39;;;;;;;21.40;10.40;;;;;;;2.37;88.98;97688.42;111233;1209;97619;-66
2023/01/17 06:20:07;;;;;;;23.90;10.90;;;;;;;2.39;88.98;97689.70;111148;1206;138536;-65
2023/01/17 06:22:32;;;;;;;26.40;11.40;;;;;;;2.40;89.04;97691.94;111298;1206;110796;-66
2023/01/17 06:24:58;;;;;;;23.30;10.90;;;;;;;2.42;88.94;97695.51;111202;1209;97593;-65
2023/01/17 06:27:23;;;;;;;25.20;11.30;;;;;;;2.45;89.09;97699.56;111096;1212;139277;-66
2023/01/17 06:29:48;;;;;;;23.40;10.80;;;;;;;2.46;89.09;97696.15;111148;1208;97254;-65
2023/01/17 06:32:14;;;;;;;22.80;11.10;;;;;;;2.47;89.03;97697.31;111132;1208;138285;-65
2023/01/17 06:34:40;;;;;;;25.80;10.40;;;;;;;2.48;88.86;97697.27;111127;1210;108228;-66
2023/01/17 06:37:06;;;;;;;20.60;10.70;;;;;;;2.48;88.96;97697.09;111106;1209;97707;-66
2023/01/17 06:39:31;;;;;;;18.40;9.50;;;;;;;2.49;88.97;97696.10;110931;1206;138400;-66
2023/01/17 06:41:56;;;;;;;18.10;8.60;;;;;;;2.51;88.97;97694.09;111162;1208;97712;-65
2023/01/17 06:44:22;;;;;;;17.70;8.70;;;;;;;2.53;89.01;97702.11;110991;1206;139616;-66
2023/01/17 06:46:47;;;;;;;14.00;7.30;;;;;;;2.53;88.93;97701.20;110964;1206;98090;-66
2023/01/17 06:49:13;;;;;;;25.60;12.20;;;;;;;2.55;89.05;97701.80;111013;1221;98395;-66
2023/01/17 06:51:39;;;;;;;16.10;8.00;;;;;;;2.58;88.98;97703.02;111115;1208;138924;-65
2023/01/17 06:54:04;;;;;;;15.40;7.60;;;;;;;2.61;88.94;97701.08;111074;1209;98052;-67
2023/01/17 06:56:31;;;;;;;16.70;8.30;;;;;;;2.63;88.92;97706.24;111036;1205;138114;-65
2023/01/17 06:58:57;;;;;;;23.50;8.90;;;;;;;2.64;88.79;97710.95;111011;1209;97817;-66
2023/01/17 07:01:22;;;;;;;14.50;7.20;;;;;;;2.65;89.01;97707.71;111152;1209;97638;-66
2023/01/17 07:03:47;;;;;;;18.80;8.40;;;;;;;2.65;88.99;97709.62;110852;1209;138115;-67
2023/01/17 07:06:13;;;;;;;17.60;7.90;;;;;;;2.67;88.69;97713.77;111051;1218;97658;-67
2023/01/17 07:08:39;;;;;;;15.70;8.30;;;;;;;2.69;88.80;97723.88;111042;1206;138784;-67
2023/01/17 07:11:09;;;;;;;15.60;7.60;;;;;;;2.70;88.72;97724.18;111065;1206;97649;-67
2023/01/17 07:13:36;;;;;;;14.30;7.30;;;;;;;2.70;88.62;97720.81;110969;1209;97590;-67
2023/01/17 07:16:03;;;;;;;13.80;6.60;;;;;;;2.70;88.68;97722.08;110904;1206;138033;-67
2023/01/17 07:18:29;;;;;;;15.10;7.60;;;;;;;2.71;88.79;97726.77;110983;1208;98191;-67
2023/01/17 07:20:54;;;;;;;16.60;7.80;;;;;;;2.72;88.66;97728.26;110785;1208;138013;-68
2023/01/17 07:23:22;;;;;;;13.60;6.90;;;;;;;2.74;88.52;97729.02;111027;1208;97675;-68
2023/01/17 07:26:06;;;;;;;11.90;5.90;;;;;;;2.76;88.68;97730.33;110987;1208;97565;-67
2023/01/17 07:28:32;;;;;;;9.20;5.10;;;;;;;2.78;88.63;97735.33;111018;1210;109900;-67
2023/01/17 07:30:58;;;;;;;13.80;7.20;;;;;;;2.80;88.57;97738.21;112782;1205;96558;-67
2023/01/17 07:33:23;;;;;;;13.80;6.80;;;;;;;2.82;88.57;97737.93;111002;1206;138260;-66
2023/01/17 07:35:48;;;;;;;11.80;6.60;;;;;;;2.83;88.62;97740.13;111151;1209;97575;-66
2023/01/17 07:38:16;;;;;;;13.30;6.50;;;;;;;2.85;88.57;97739.68;110986;1206;138808;-66
2023/01/17 07:40:42;;;;;;;15.90;7.40;;;;;;;2.86;88.50;97742.59;111066;1206;97687;-66
2023/01/17 07:43:14;;;;;;;13.80;6.80;;;;;;;2.88;88.56;97741.23;111002;1205;97609;-67
2023/01/17 07:45:44;;;;;;;13.70;6.60;;;;;;;2.89;88.24;97745.43;110807;1212;137207;-65
2023/01/17 07:48:11;;;;;;;11.70;6.60;;;;;;;2.90;88.41;97746.42;111313;1208;111536;-65
2023/01/17 07:50:36;;;;;;;17.60;7.30;;;;;;;2.92;88.51;97749.79;111166;1206;138851;-66
2023/01/17 07:53:03;;;;;;;11.60;5.60;;;;;;;2.96;88.25;97750.48;111089;1208;98919;-65
2023/01/17 07:55:28;;;;;;;18.60;5.30;;;;;;;3.01;88.51;97753.54;110473;1206;98001;-64
2023/01/17 07:57:54;;;;;;;11.20;4.80;;;;;;;3.06;88.28;97755.89;110582;1209;138257;-65
2023/01/17 08:00:21;;;;;;;9.60;4.40;;;;;;;3.11;88.20;97753.48;110892;1209;97689;-65
2023/01/17 08:02:47;;;;;;;8.90;4.50;;;;;;;3.13;88.18;97756.67;111013;1208;138884;-65
2023/01/17 08:05:12;;;;;;;9.80;5.20;;;;;;;3.16;88.18;97755.99;111100;1206;97572;-66
2023/01/17 08:07:38;;;;;;;10.80;5.70;;;;;;;3.18;88.06;97761.67;111055;1208;98528;-66
2023/01/17 08:10:05;;;;;;;10.80;5.40;;;;;;;3.20;87.90;97762.96;110971;1209;138854;-65
2023/01/17 08:12:30;;;;;;;14.50;6.20;;;;;;;3.22;87.95;97761.48;110985;1207;97896;-65
2023/01/17 08:14:56;;;;;;;12.80;5.90;;;;;;;3.23;87.81;97764.77;110931;1206;139239;-66
2023/01/17 08:17:21;;;;;;;11.80;6.00;;;;;;;3.24;87.74;97768.90;111179;1206;97645;-66
2023/01/17 08:19:51;;;;;;;11.80;6.10;;;;;;;3.26;87.81;97767.73;110890;1206;97939;-64
2023/01/17 08:22:16;;;;;;;11.70;6.20;;;;;;;3.29;87.72;97765.11;110909;1206;137915;-65
2023/01/17 08:24:42;;;;;;;10.40;5.90;;;;;;;3.31;87.61;97770.30;110999;1206;97639;-66
2023/01/17 08:27:07;;;;;;;10.10;5.20;;;;;;;3.33;87.40;97775.30;110921;1206;139174;-65
2023/01/17 08:29:34;;;;;;;15.80;5.70;;;;;;;3.35;87.45;97778.34;111082;1209;97594;-65
2023/01/17 08:31:59;;;;;;;14.10;5.20;;;;;;;3.36;87.32;97776.66;111063;1209;97575;-66
2023/01/17 08:34:25;;;;;;;13.70;6.00;;;;;;;3.38;87.24;97775.66;110949;1208;138693;-65
2023/01/17 08:36:54;;;;;;;14.60;6.10;;;;;;;3.41;87.42;97778.83;111017;1208;99993;-65
2023/01/17 08:39:20;;;;;;;15.40;6.20;;;;;;;3.45;87.25;97785.86;110923;1208;138717;-65
2023/01/17 08:41:45;;;;;;;12.80;5.90;;;;;;;3.48;87.22;97786.20;110999;1210;97690;-65
2023/01/17 08:44:11;;;;;;;12.90;5.80;;;;;;;3.51;87.25;97791.64;110814;1206;139789;-63
2023/01/17 08:46:37;;;;;;;18.00;7.70;;;;;;;3.54;87.11;97794.97;111042;1209;97705;-64
2023/01/17 08:49:03;;;;;;;15.60;6.70;;;;;;;3.57;86.89;97799.54;110952;1206;97565;-64
2023/01/17 08:51:30;;;;;;;14.00;6.00;;;;;;;3.62;87.16;97802.81;110906;1220;139641;-65
2023/01/17 08:53:55;;;;;;;13.50;6.30;;;;;;;3.66;86.89;97807.36;110880;1208;111089;-65
2023/01/17 08:56:22;;;;;;;14.60;5.90;;;;;;;3.69;86.81;97807.50;110665;1206;139173;-65
2023/01/17 08:58:48;;;;;;;15.90;6.50;;;;;;;3.74;86.75;97815.34;111019;1208;97709;-65
2023/01/17 09:01:13;;;;;;;13.70;6.30;;;;;;;3.78;86.55;97816.50;110953;1209;97960;-66
2023/01/17 09:03:38;;;;;;;16.70;7.10;;;;;;;3.81;86.62;97824.05;110835;1212;138505;-65
2023/01/17 09:06:07;;;;;;;11.40;4.90;;;;;;;3.85;86.57;97824.88;111048;1209;97714;-65
2023/01/17 09:08:33;;;;;;;14.50;6.00;;;;;;;3.88;86.42;97823.95;110846;1208;138119;-66
2023/01/17 09:11:03;;;;;;;10.20;5.30;;;;;;;3.93;86.40;97831.80;110838;1206;99098;-66
2023/01/17 09:13:28;;;;;;;14.60;5.90;;;;;;;3.98;85.88;97837.53;110987;1212;111820;-66
2023/01/17 09:15:58;;;;;;;12.50;5.50;;;;;;;4.02;86.10;97838.02;110697;1212;138244;-65
2023/01/17 09:18:28;;;;;;;12.20;5.80;;;;;;;4.06;86.05;97840.89;110859;1208;107754;-65
2023/01/17 09:20:56;;;;;;;10.50;4.70;;;;;;;4.11;86.25;97843.80;110718;1206;141788;-65
2023/01/17 09:23:22;;;;;;;11.20;4.70;;;;;;;4.13;86.12;97848.20;111104;1206;97655;-65
2023/01/17 09:25:51;;;;;;;8.30;4.30;;;;;;;4.18;86.11;97851.98;111024;1206;97759;-65
2023/01/17 09:28:17;;;;;;;15.00;5.30;;;;;;;4.24;85.84;97853.23;110980;1208;138312;-66
2023/01/17 09:30:42;;;;;;;14.60;4.70;;;;;;;4.29;85.88;97854.30;111034;1208;100316;-65
2023/01/17 09:33:07;;;;;;;10.40;4.80;;;;;;;4.35;85.73;97856.59;111034;1209;138169;-66
2023/01/17 09:35:33;;;;;;;10.60;4.80;;;;;;;4.40;85.97;97858.94;110999;1206;97859;-66
2023/01/17 09:37:58;;;;;;;10.20;4.50;;;;;;;4.43;85.85;97857.85;111137;1209;97699;-67
2023/01/17 09:40:24;;;;;;;7.90;3.80;;;;;;;4.47;85.55;97856.55;111071;1209;138610;-66
2023/01/17 09:42:54;;;;;;;12.90;4.60;;;;;;;4.50;85.59;97862.52;111080;1211;97669;-66
2023/01/17 09:45:20;;;;;;;11.50;3.70;;;;;;;4.53;85.46;97865.02;111004;1205;139685;-65
2023/01/17 09:47:50;;;;;;;8.70;3.70;;;;;;;4.57;85.28;97863.86;110999;1209;97713;-65
2023/01/17 09:50:26;;;;;;;8.50;4.00;;;;;;;4.61;85.29;97861.14;110840;1221;138696;-66
2023/01/17 09:53:01;;;;;;;9.40;3.80;;;;;;;4.65;85.24;97860.89;111066;1204;97690;-67
2023/01/17 09:56:16;;;;;;;11.20;4.50;;;;;;;4.69;85.04;97860.63;111151;1208;98102;-66
2023/01/17 09:59:00;;;;;;;9.60;3.70;;;;;;;4.74;84.96;97859.58;110884;1214;111338;-65
2023/01/17 10:01:59;;;;;;;11.30;4.30;;;;;;;4.78;84.85;97866.02;110908;1206;99629;-66
2023/01/17 10:04:30;;;;;;;7.90;3.30;;;;;;;4.82;84.42;97867.71;110843;1221;138321;-65
2023/01/17 10:07:07;;;;;;;10.60;3.90;;;;;;;4.85;84.52;97861.85;110955;1208;96573;-66
2023/01/17 10:09:50;;;;;;;10.60;3.50;;;;;;;4.89;84.65;97861.96;111059;1208;138540;-65
2023/01/17 10:12:24;;;;;;;11.70;3.60;;;;;;;4.93;84.46;97858.39;111151;1208;111722;-65
2023/01/17 10:15:10;;;;;;;6.50;2.90;;;;;;;4.95;84.47;97861.25;110949;1208;138929;-66
2023/01/17 10:17:57;;;;;;;9.20;3.50;;;;;;;5.00;84.52;97857.40;111079;1209;108038;-66
2023/01/17 10:21:02;;;;;;;10.10;3.20;;;;;;;5.03;84.28;97863.39;110909;1209;138547;-66
2023/01/17 10:23:53;;;;;;;16.50;4.10;;;;;;;5.03;84.30;97861.75;111019;1206;98466;-66
2023/01/17 10:26:23;;;;;;;16.10;4.10;;;;;;;5.03;83.83;97865.65;110956;1222;139021;-66
2023/01/17 10:28:53;;;;;;;10.30;3.70;;;;;;;5.05;84.06;97873.67;111082;1208;98115;-66
2023/01/17 10:31:22;;;;;;;8.30;3.80;;;;;;;5.09;84.21;97875.33;111137;1207;106795;-66
2023/01/17 10:33:53;;;;;;;7.80;3.90;;;;;;;5.15;83.96;97877.62;110980;1206;138061;-67
2023/01/17 10:36:24;;;;;;;14.30;4.90;;;;;;;5.19;83.90;97877.50;111063;1212;99731;-66
2023/01/17 10:38:56;;;;;;;8.20;4.30;;;;;;;5.22;83.77;97879.05;110941;1209;138385;-65
2023/01/17 10:41:41;;;;;;;9.10;3.60;;;;;;;5.31;82.97;97879.73;111135;1209;99918;-66
2023/01/17 10:44:14;;;;;;;11.50;3.50;;;;;;;5.41;83.09;97882.02;111010;1209;107224;-65
2023/01/17 10:47:11;;;;;;;9.20;3.30;;;;;;;5.50;83.31;97882.51;111087;1209;97636;-65
2023/01/17 10:49:45;;;;;;;8.90;2.70;;;;;;;5.54;83.06;97883.48;111033;1207;97794;-66
2023/01/17 10:52:37;;;;;;;6.30;2.70;;;;;;;5.52;81.62;97884.15;110774;1206;137916;-65
2023/01/17 10:55:20;;;;;;;8.20;2.60;;;;;;;5.49;82.10;97884.00;111048;1212;100047;-65
2023/01/17 10:57:47;;;;;;;7.30;2.40;;;;;;;5.45;82.22;97893.09;110907;1221;138172;-65
2023/01/17 11:00:42;;;;;;;7.60;2.60;;;;;;;5.44;82.24;97891.20;110901;1212;98026;-65
2023/01/17 11:03:13;;;;;;;5.80;3.00;;;;;;;5.49;82.26;97892.29;110918;1212;138871;-66
2023/01/17 11:05:40;;;;;;;;;;;;;;;5.53;82.07;97886.89;111107;1222;111102;-65
2023/01/17 11:08:08;;;;;;;8.40;3.10;;;;;;;5.54;81.86;97889.50;111266;1209;98326;-66
2023/01/17 11:10:38;;;;;;;8.20;3.00;;;;;;;5.53;81.28;97893.77;110996;1208;138222;-65
2023/01/17 11:13:23;;;;;;;9.50;3.00;;;;;;;5.50;81.17;97892.26;110991;1208;97598;-66
2023/01/17 11:15:56;;;;;;;13.50;3.50;;;;;;;5.50;80.97;97894.17;110872;1221;137806;-63
2023/01/17 11:18:26;;;;;;;9.90;4.10;;;;;;;5.50;81.20;97896.70;111000;1208;112331;-64
2023/01/17 11:20:52;;;;;;;8.80;3.10;;;;;;;5.50;81.09;97895.06;110930;1209;138535;-65
2023/01/17 11:23:30;;;;;;;9.10;3.30;;;;;;;5.52;80.31;97894.96;110897;1207;98293;-65
2023/01/17 11:26:06;;;;;;;8.20;3.50;;;;;;;5.54;80.87;97891.09;111092;1211;101161;-65
2023/01/17 11:28:37;;;;;;;6.50;2.90;;;;;;;5.55;80.87;97890.13;110948;1206;137753;-64
2023/01/17 11:31:06;;;;;;;10.70;2.90;;;;;;;5.58;80.80;97888.94;110994;1209;111844;-66
2023/01/17 11:33:47;;;;;;;13.60;4.40;;;;;;;5.59;80.24;97884.95;111014;1218;139785;-65
2023/01/17 11:36:14;;;;;;;;;;;;;;;5.62;80.53;97879.05;111051;1212;107860;-65
2023/01/17 11:39:02;;;;;;;16.40;4.30;;;;;;;5.64;80.52;97878.58;110936;1206;128559;-64
2023/01/17 11:41:39;;;;;;;10.80;3.80;;;;;;;5.69;80.56;97876.98;111029;1209;97712;-65
2023/01/17 11:44:23;;;;;;;11.20;3.70;;;;;;;5.73;80.48;97879.88;110986;1207;111502;-65
2023/01/17 11:47:09;;;;;;;9.70;3.90;;;;;;;5.73;80.42;97878.49;111052;1212;100146;-65
2023/01/17 11:49:35;;;;;;;13.60;4.60;;;;;;;5.74;80.38;97879.66;111217;1212;107854;-64
2023/01/17 11:52:26;;;;;;;12.40;4.30;;;;;;;5.73;80.19;97878.11;110834;1210;138081;-64
2023/01/17 11:54:52;;;;;;;;;;;;;;;5.72;79.94;97882.25;110945;1210;97765;-64
2023/01/17 11:57:34;;;;;;;12.70;4.00;;;;;;;5.71;80.15;97882.52;111029;1210;125142;-65
2023/01/17 12:00:23;;;;;;;13.30;4.80;;;;;;;5.71;79.77;97886.97;110980;1209;99357;-64
2023/01/17 12:03:24;;;;;;;9.10;4.50;;;;;;;5.71;79.46;97888.20;110809;1218;138835;-65
2023/01/17 12:06:00;;;;;;;11.40;4.30;;;;;;;5.74;79.71;97883.39;110987;1206;97688;-65
2023/01/17 12:09:04;;;;;;;10.80;3.70;;;;;;;5.78;79.39;97886.96;111008;1207;138284;-64
2023/01/17 12:13:59;;;;;;;9.80;2.80;;;;;;;5.85;79.24;97884.77;110988;1219;111617;-65
2023/01/17 12:14:42;;;;;;;7.40;2.40;;;;;;;5.87;78.83;97886.93;110928;1211;137973;-64
2023/01/17 12:17:21;;;;;;;8.20;2.90;;;;;;;5.89;78.73;97889.46;110899;1213;109005;-65
2023/01/17 12:19:59;;;;;;;8.80;3.10;;;;;;;5.93;78.65;97897.19;111019;1212;97594;-64
2023/01/17 12:22:46;;;;;;;7.20;2.90;;;;;;;5.95;78.70;97900.73;110911;1218;137638;-64
2023/01/17 12:25:30;;;;;;;7.60;3.20;;;;;;;5.98;78.69;97901.59;110947;1207;111953;-65
2023/01/17 12:28:23;;;;;;;7.00;3.50;;;;;;;6.05;78.62;97901.46;110855;1208;138651;-65
2023/01/17 12:31:01;;;;;;;6.90;3.00;;;;;;;6.12;78.44;97900.96;110919;1218;106983;-65
2023/01/17 12:33:44;;;;;;;6.50;2.60;;;;;;;6.15;77.85;97900.23;110923;1218;139424;-65
2023/01/17 12:36:23;;;;;;;12.30;2.70;;;;;;;6.13;77.47;97898.60;110857;1219;97696;-65
2023/01/17 12:38:49;;;;;;;4.70;2.50;;;;;;;6.11;77.62;97898.94;110748;1209;137922;-66
2023/01/17 12:41:23;;;;;;;5.30;2.70;;;;;;;6.09;77.49;97896.91;111045;1212;97814;-66
2023/01/17 12:43:56;;;;;;;8.50;2.40;;;;;;;6.09;77.20;97896.95;111088;1208;107979;-65
2023/01/17 12:46:42;;;;;;;3.50;1.90;;;;;;;6.08;76.83;97893.79;110893;1209;138932;-65
2023/01/17 12:49:21;;;;;;;5.20;1.80;;;;;;;6.06;76.65;97891.52;111070;1206;97996;-65
2023/01/17 12:51:54;;;;;;;5.10;2.10;;;;;;;5.98;76.15;97893.46;110842;1209;139489;-64
2023/01/17 12:54:23;;;;;;;4.00;1.60;;;;;;;5.90;75.44;97895.05;111166;1206;98869;-65
2023/01/17 12:57:02;;;;;;;6.80;2.40;;;;;;;5.81;75.23;97891.77;110878;1210;137610;-64